sensor_id;sensor_type;location;lat;lon;timestamp;P1;durP1;ratioP1;P2;durP2;ratioP2
26337;SDS011;14050;50.950;4.460;2023-04-03T00:03:38;15.57;;;10.25;;
26337;SDS011;14050;50.950;4.460;2023-04-03T00:08:39;15.00;;;10.15;;
26337;SDS011;14050;50.950;4.460;2023-04-03T00:13:40;17.35;;;10.75;;
26337;SDS011;14050;50.950;4.460;2023-04-03T00:18:40;16.50;;;9.80;;
26337;SDS011;14050;50.950;4.460;2023-04-03T00:23:41;16.40;;;10.27;;
26337;SDS011;14050;50.950;4.460;2023-04-03T00:28:42;16.48;;;10.07;;
26337;SDS011;14050;50.950;4.460;2023-04-03T00:33:43;15.05;;;9.77;;
26337;SDS011;14050;50.950;4.460;2023-04-03T00:38:43;12.85;;;8.80;;
26337;SDS011;14050;50.950;4.460;2023-04-03T00:43:44;14.57;;;8.23;;
26337;SDS011;14050;50.950;4.460;2023-04-03T00:48:45;12.80;;;7.95;;
26337;SDS011;14050;50.950;4.460;2023-04-03T00:53:47;17.80;;;8.10;;
26337;SDS011;14050;50.950;4.460;2023-04-03T00:58:53;15.68;;;7.75;;
26337;SDS011;14050;50.950;4.460;2023-04-03T01:03:55;16.33;;;7.40;;
26337;SDS011;14050;50.950;4.460;2023-04-03T01:08:55;10.70;;;6.78;;
26337;SDS011;14050;50.950;4.460;2023-04-03T01:13:56;16.67;;;7.77;;
26337;SDS011;14050;50.950;4.460;2023-04-03T01:18:56;14.60;;;8.33;;
26337;SDS011;14050;50.950;4.460;2023-04-03T01:24:39;14.18;;;7.88;;
26337;SDS011;14050;50.950;4.460;2023-04-03T01:29:20;15.68;;;8.30;;
26337;SDS011;14050;50.950;4.460;2023-04-03T01:34:20;16.10;;;8.20;;
26337;SDS011;14050;50.950;4.460;2023-04-03T01:39:21;15.90;;;8.73;;
26337;SDS011;14050;50.950;4.460;2023-04-03T01:44:21;16.67;;;8.57;;
26337;SDS011;14050;50.950;4.460;2023-04-03T01:49:22;11.65;;;7.40;;
26337;SDS011;14050;50.950;4.460;2023-04-03T01:54:22;15.32;;;7.45;;
26337;SDS011;14050;50.950;4.460;2023-04-03T01:59:22;9.63;;;6.97;;
26337;SDS011;14050;50.950;4.460;2023-04-03T02:04:23;10.70;;;6.70;;
26337;SDS011;14050;50.950;4.460;2023-04-03T02:09:23;11.38;;;6.70;;
26337;SDS011;14050;50.950;4.460;2023-04-03T02:14:24;10.45;;;6.68;;
26337;SDS011;14050;50.950;4.460;2023-04-03T02:19:27;12.73;;;7.38;;
26337;SDS011;14050;50.950;4.460;2023-04-03T02:24:27;14.85;;;6.65;;
26337;SDS011;14050;50.950;4.460;2023-04-03T02:29:27;12.18;;;7.15;;
26337;SDS011;14050;50.950;4.460;2023-04-03T02:34:28;12.00;;;7.00;;
26337;SDS011;14050;50.950;4.460;2023-04-03T02:39:28;11.55;;;6.95;;
26337;SDS011;14050;50.950;4.460;2023-04-03T02:44:29;9.77;;;6.72;;
26337;SDS011;14050;50.950;4.460;2023-04-03T02:49:29;11.20;;;7.07;;
26337;SDS011;14050;50.950;4.460;2023-04-03T02:54:29;10.90;;;6.65;;
26337;SDS011;14050;50.950;4.460;2023-04-03T02:59:30;10.68;;;7.25;;
26337;SDS011;14050;50.950;4.460;2023-04-03T03:04:30;14.85;;;7.32;;
26337;SDS011;14050;50.950;4.460;2023-04-03T03:09:32;10.63;;;7.17;;
26337;SDS011;14050;50.950;4.460;2023-04-03T03:14:33;11.07;;;7.38;;
26337;SDS011;14050;50.950;4.460;2023-04-03T03:19:33;13.53;;;7.47;;
26337;SDS011;14050;50.950;4.460;2023-04-03T03:24:33;12.70;;;7.13;;
26337;SDS011;14050;50.950;4.460;2023-04-03T03:29:34;9.33;;;7.27;;
26337;SDS011;14050;50.950;4.460;2023-04-03T03:34:36;14.30;;;6.75;;
26337;SDS011;14050;50.950;4.460;2023-04-03T03:39:36;15.05;;;7.35;;
26337;SDS011;14050;50.950;4.460;2023-04-03T03:44:37;9.93;;;7.20;;
26337;SDS011;14050;50.950;4.460;2023-04-03T03:49:37;12.47;;;7.50;;
26337;SDS011;14050;50.950;4.460;2023-04-03T03:54:38;10.23;;;7.88;;
26337;SDS011;14050;50.950;4.460;2023-04-03T03:59:38;12.68;;;7.43;;
26337;SDS011;14050;50.950;4.460;2023-04-03T04:04:41;12.27;;;8.35;;
26337;SDS011;14050;50.950;4.460;2023-04-03T04:09:41;13.50;;;8.27;;
26337;SDS011;14050;50.950;4.460;2023-04-03T04:14:42;11.95;;;7.88;;
26337;SDS011;14050;50.950;4.460;2023-04-03T04:19:42;11.77;;;9.07;;
26337;SDS011;14050;50.950;4.460;2023-04-03T04:24:42;10.75;;;8.48;;
26337;SDS011;14050;50.950;4.460;2023-04-03T04:29:42;14.70;;;8.13;;
26337;SDS011;14050;50.950;4.460;2023-04-03T04:34:43;13.85;;;9.18;;
26337;SDS011;14050;50.950;4.460;2023-04-03T04:39:43;12.50;;;8.35;;
26337;SDS011;14050;50.950;4.460;2023-04-03T04:44:44;12.45;;;8.60;;
26337;SDS011;14050;50.950;4.460;2023-04-03T04:49:45;12.57;;;9.07;;
26337;SDS011;14050;50.950;4.460;2023-04-03T04:54:47;13.05;;;10.05;;
26337;SDS011;14050;50.950;4.460;2023-04-03T04:59:48;15.77;;;10.57;;
26337;SDS011;14050;50.950;4.460;2023-04-03T05:04:48;12.57;;;8.48;;
26337;SDS011;14050;50.950;4.460;2023-04-03T05:09:50;16.60;;;9.80;;
26337;SDS011;14050;50.950;4.460;2023-04-03T05:14:51;16.98;;;10.13;;
26337;SDS011;14050;50.950;4.460;2023-04-03T05:19:51;12.32;;;8.98;;
26337;SDS011;14050;50.950;4.460;2023-04-03T05:24:53;14.55;;;9.30;;
26337;SDS011;14050;50.950;4.460;2023-04-03T05:29:54;16.48;;;10.27;;
26337;SDS011;14050;50.950;4.460;2023-04-03T05:34:55;13.50;;;8.00;;
26337;SDS011;14050;50.950;4.460;2023-04-03T05:39:56;14.93;;;8.88;;
26337;SDS011;14050;50.950;4.460;2023-04-03T05:44:56;14.95;;;10.00;;
26337;SDS011;14050;50.950;4.460;2023-04-03T05:49:57;20.27;;;12.57;;
26337;SDS011;14050;50.950;4.460;2023-04-03T05:54:57;23.73;;;12.03;;
26337;SDS011;14050;50.950;4.460;2023-04-03T05:59:57;16.90;;;9.95;;
26337;SDS011;14050;50.950;4.460;2023-04-03T06:04:59;17.98;;;9.98;;
26337;SDS011;14050;50.950;4.460;2023-04-03T06:09:59;18.98;;;11.85;;
26337;SDS011;14050;50.950;4.460;2023-04-03T06:15:01;16.25;;;10.70;;
26337;SDS011;14050;50.950;4.460;2023-04-03T06:20:02;19.40;;;14.68;;
26337;SDS011;14050;50.950;4.460;2023-04-03T06:25:03;19.98;;;11.50;;
26337;SDS011;14050;50.950;4.460;2023-04-03T06:30:05;19.75;;;12.55;;
26337;SDS011;14050;50.950;4.460;2023-04-03T06:35:06;19.80;;;12.85;;
26337;SDS011;14050;50.950;4.460;2023-04-03T06:40:07;20.40;;;13.25;;
26337;SDS011;14050;50.950;4.460;2023-04-03T06:45:07;20.77;;;10.85;;
26337;SDS011;14050;50.950;4.460;2023-04-03T06:50:09;15.82;;;11.15;;
26337;SDS011;14050;50.950;4.460;2023-04-03T06:55:11;16.33;;;10.88;;
26337;SDS011;14050;50.950;4.460;2023-04-03T07:00:11;19.20;;;11.23;;
26337;SDS011;14050;50.950;4.460;2023-04-03T07:05:12;14.68;;;10.23;;
26337;SDS011;14050;50.950;4.460;2023-04-03T07:10:13;16.13;;;10.35;;
26337;SDS011;14050;50.950;4.460;2023-04-03T07:15:13;15.70;;;9.57;;
26337;SDS011;14050;50.950;4.460;2023-04-03T07:20:14;14.63;;;10.05;;
26337;SDS011;14050;50.950;4.460;2023-04-03T07:25:15;14.60;;;9.63;;
26337;SDS011;14050;50.950;4.460;2023-04-03T07:30:15;13.82;;;9.10;;
26337;SDS011;14050;50.950;4.460;2023-04-03T07:35:16;12.07;;;8.50;;
26337;SDS011;14050;50.950;4.460;2023-04-03T07:40:17;12.40;;;8.48;;
26337;SDS011;14050;50.950;4.460;2023-04-03T07:45:17;13.30;;;7.93;;
26337;SDS011;14050;50.950;4.460;2023-04-03T07:50:19;18.67;;;7.80;;
26337;SDS011;14050;50.950;4.460;2023-04-03T07:55:19;12.93;;;7.37;;
26337;SDS011;14050;50.950;4.460;2023-04-03T08:00:19;12.60;;;7.68;;
26337;SDS011;14050;50.950;4.460;2023-04-03T08:05:20;15.83;;;6.80;;
26337;SDS011;14050;50.950;4.460;2023-04-03T08:10:21;13.40;;;7.30;;
26337;SDS011;14050;50.950;4.460;2023-04-03T08:15:21;13.90;;;6.05;;
26337;SDS011;14050;50.950;4.460;2023-04-03T08:20:22;12.83;;;6.93;;
26337;SDS011;14050;50.950;4.460;2023-04-03T08:25:22;14.17;;;6.80;;
26337;SDS011;14050;50.950;4.460;2023-04-03T08:30:22;13.88;;;6.75;;
26337;SDS011;14050;50.950;4.460;2023-04-03T08:35:22;12.40;;;6.30;;
26337;SDS011;14050;50.950;4.460;2023-04-03T08:40:23;13.85;;;5.57;;
26337;SDS011;14050;50.950;4.460;2023-04-03T08:45:35;12.13;;;5.35;;
26337;SDS011;14050;50.950;4.460;2023-04-03T08:50:41;12.30;;;5.05;;
26337;SDS011;14050;50.950;4.460;2023-04-03T08:55:44;12.10;;;4.82;;
26337;SDS011;14050;50.950;4.460;2023-04-03T09:00:54;11.35;;;4.10;;
26337;SDS011;14050;50.950;4.460;2023-04-03T09:06:06;11.48;;;4.47;;
26337;SDS011;14050;50.950;4.460;2023-04-03T09:11:16;12.05;;;4.28;;
26337;SDS011;14050;50.950;4.460;2023-04-03T09:16:21;9.55;;;3.42;;
26337;SDS011;14050;50.950;4.460;2023-04-03T09:21:25;7.53;;;3.03;;
26337;SDS011;14050;50.950;4.460;2023-04-03T09:26:39;10.57;;;3.42;;
26337;SDS011;14050;50.950;4.460;2023-04-03T09:31:42;5.03;;;2.92;;
26337;SDS011;14050;50.950;4.460;2023-04-03T09:36:46;11.75;;;3.05;;
26337;SDS011;14050;50.950;4.460;2023-04-03T09:42:00;8.65;;;3.20;;
26337;SDS011;14050;50.950;4.460;2023-04-03T09:47:17;9.10;;;2.80;;
26337;SDS011;14050;50.950;4.460;2023-04-03T09:52:22;8.35;;;2.78;;
26337;SDS011;14050;50.950;4.460;2023-04-03T09:57:24;8.07;;;2.60;;
26337;SDS011;14050;50.950;4.460;2023-04-03T10:02:36;8.05;;;2.78;;
26337;SDS011;14050;50.950;4.460;2023-04-03T10:07:37;7.80;;;2.80;;
26337;SDS011;14050;50.950;4.460;2023-04-03T10:12:38;6.03;;;2.47;;
26337;SDS011;14050;50.950;4.460;2023-04-03T10:33:33;6.40;;;2.35;;
26337;SDS011;14050;50.950;4.460;2023-04-03T10:38:41;8.15;;;2.88;;
26337;SDS011;14050;50.950;4.460;2023-04-03T10:43:44;9.32;;;2.55;;
26337;SDS011;14050;50.950;4.460;2023-04-03T10:48:54;5.53;;;2.33;;
26337;SDS011;14050;50.950;4.460;2023-04-03T11:04:39;6.53;;;2.17;;
26337;SDS011;14050;50.950;4.460;2023-04-03T11:09:41;6.35;;;2.40;;
26337;SDS011;14050;50.950;4.460;2023-04-03T11:14:43;7.63;;;2.13;;
26337;SDS011;14050;50.950;4.460;2023-04-03T11:24:46;5.32;;;1.52;;
26337;SDS011;14050;50.950;4.460;2023-04-03T11:29:52;6.70;;;1.70;;
26337;SDS011;14050;50.950;4.460;2023-04-03T11:34:54;7.40;;;2.10;;
26337;SDS011;14050;50.950;4.460;2023-04-03T11:39:57;4.07;;;1.83;;
26337;SDS011;14050;50.950;4.460;2023-04-03T12:05:50;6.95;;;1.60;;
26337;SDS011;14050;50.950;4.460;2023-04-03T12:31:41;6.07;;;1.90;;
26337;SDS011;14050;50.950;4.460;2023-04-03T12:37:07;5.15;;;1.50;;
26337;SDS011;14050;50.950;4.460;2023-04-03T12:47:32;4.05;;;1.70;;
26337;SDS011;14050;50.950;4.460;2023-04-03T12:52:43;6.00;;;1.80;;
26337;SDS011;14050;50.950;4.460;2023-04-03T12:57:44;4.20;;;1.88;;
26337;SDS011;14050;50.950;4.460;2023-04-03T13:02:44;5.03;;;1.40;;
26337;SDS011;14050;50.950;4.460;2023-04-03T13:07:49;3.85;;;1.63;;
26337;SDS011;14050;50.950;4.460;2023-04-03T13:12:54;6.85;;;2.28;;
26337;SDS011;14050;50.950;4.460;2023-04-03T13:17:56;6.35;;;1.77;;
26337;SDS011;14050;50.950;4.460;2023-04-03T13:27:57;4.67;;;1.80;;
26337;SDS011;14050;50.950;4.460;2023-04-03T13:32:59;5.35;;;1.98;;
26337;SDS011;14050;50.950;4.460;2023-04-03T13:38:02;3.72;;;1.80;;
26337;SDS011;14050;50.950;4.460;2023-04-03T13:43:14;7.45;;;2.05;;
26337;SDS011;14050;50.950;4.460;2023-04-03T13:48:17;7.22;;;1.85;;
26337;SDS011;14050;50.950;4.460;2023-04-03T13:53:18;7.57;;;1.85;;
26337;SDS011;14050;50.950;4.460;2023-04-03T13:58:36;4.05;;;1.90;;
26337;SDS011;14050;50.950;4.460;2023-04-03T14:03:45;5.90;;;2.15;;
26337;SDS011;14050;50.950;4.460;2023-04-03T14:13:46;2.67;;;1.50;;
26337;SDS011;14050;50.950;4.460;2023-04-03T14:18:47;4.68;;;1.80;;
26337;SDS011;14050;50.950;4.460;2023-04-03T14:23:48;9.07;;;1.80;;
26337;SDS011;14050;50.950;4.460;2023-04-03T14:28:49;3.92;;;1.48;;
26337;SDS011;14050;50.950;4.460;2023-04-03T14:33:50;9.02;;;1.90;;
26337;SDS011;14050;50.950;4.460;2023-04-03T14:38:51;3.92;;;1.75;;
26337;SDS011;14050;50.950;4.460;2023-04-03T14:43:52;4.32;;;1.60;;
26337;SDS011;14050;50.950;4.460;2023-04-03T14:48:53;5.80;;;2.25;;
26337;SDS011;14050;50.950;4.460;2023-04-03T14:53:53;5.28;;;1.85;;
26337;SDS011;14050;50.950;4.460;2023-04-03T14:58:59;7.13;;;1.45;;
26337;SDS011;14050;50.950;4.460;2023-04-03T15:04:00;3.22;;;1.40;;
26337;SDS011;14050;50.950;4.460;2023-04-03T15:09:02;5.57;;;1.52;;
26337;SDS011;14050;50.950;4.460;2023-04-03T15:14:03;4.18;;;1.58;;
26337;SDS011;14050;50.950;4.460;2023-04-03T15:19:03;7.03;;;1.37;;
26337;SDS011;14050;50.950;4.460;2023-04-03T15:24:04;4.87;;;1.67;;
26337;SDS011;14050;50.950;4.460;2023-04-03T15:29:04;4.68;;;1.40;;
26337;SDS011;14050;50.950;4.460;2023-04-03T15:34:05;3.42;;;1.50;;
26337;SDS011;14050;50.950;4.460;2023-04-03T15:39:05;4.75;;;1.73;;
26337;SDS011;14050;50.950;4.460;2023-04-03T15:44:06;3.77;;;1.50;;
26337;SDS011;14050;50.950;4.460;2023-04-03T15:49:06;5.80;;;2.10;;
26337;SDS011;14050;50.950;4.460;2023-04-03T15:54:06;2.93;;;1.40;;
26337;SDS011;14050;50.950;4.460;2023-04-03T15:59:07;6.78;;;1.52;;
26337;SDS011;14050;50.950;4.460;2023-04-03T16:04:07;10.38;;;1.50;;
26337;SDS011;14050;50.950;4.460;2023-04-03T16:09:08;4.35;;;1.80;;
26337;SDS011;14050;50.950;4.460;2023-04-03T16:14:11;4.22;;;1.50;;
26337;SDS011;14050;50.950;4.460;2023-04-03T16:19:11;6.00;;;1.90;;
26337;SDS011;14050;50.950;4.460;2023-04-03T16:24:11;6.47;;;1.70;;
26337;SDS011;14050;50.950;4.460;2023-04-03T16:29:12;4.78;;;1.80;;
26337;SDS011;14050;50.950;4.460;2023-04-03T16:34:13;3.90;;;1.60;;
26337;SDS011;14050;50.950;4.460;2023-04-03T16:39:13;5.13;;;1.83;;
26337;SDS011;14050;50.950;4.460;2023-04-03T16:44:14;3.42;;;1.65;;
26337;SDS011;14050;50.950;4.460;2023-04-03T16:49:15;4.15;;;1.50;;
26337;SDS011;14050;50.950;4.460;2023-04-03T16:54:15;4.45;;;1.80;;
26337;SDS011;14050;50.950;4.460;2023-04-03T16:59:15;6.70;;;1.70;;
26337;SDS011;14050;50.950;4.460;2023-04-03T17:04:16;5.43;;;2.00;;
26337;SDS011;14050;50.950;4.460;2023-04-03T17:09:16;4.40;;;1.73;;
26337;SDS011;14050;50.950;4.460;2023-04-03T17:14:16;3.70;;;1.70;;
26337;SDS011;14050;50.950;4.460;2023-04-03T17:19:17;4.73;;;2.27;;
26337;SDS011;14050;50.950;4.460;2023-04-03T17:24:17;5.40;;;1.88;;
26337;SDS011;14050;50.950;4.460;2023-04-03T17:29:17;7.47;;;2.42;;
26337;SDS011;14050;50.950;4.460;2023-04-03T17:34:17;6.22;;;1.92;;
26337;SDS011;14050;50.950;4.460;2023-04-03T17:39:18;7.40;;;1.93;;
26337;SDS011;14050;50.950;4.460;2023-04-03T17:44:18;6.60;;;2.05;;
26337;SDS011;14050;50.950;4.460;2023-04-03T17:49:18;4.47;;;2.03;;
26337;SDS011;14050;50.950;4.460;2023-04-03T17:54:21;4.93;;;2.05;;
26337;SDS011;14050;50.950;4.460;2023-04-03T17:59:21;7.33;;;1.80;;
26337;SDS011;14050;50.950;4.460;2023-04-03T18:04:22;5.85;;;2.20;;
26337;SDS011;14050;50.950;4.460;2023-04-03T18:09:25;8.15;;;2.00;;
26337;SDS011;14050;50.950;4.460;2023-04-03T18:14:26;8.52;;;2.50;;
26337;SDS011;14050;50.950;4.460;2023-04-03T18:19:26;8.30;;;2.28;;
26337;SDS011;14050;50.950;4.460;2023-04-03T18:24:27;9.88;;;2.42;;
26337;SDS011;14050;50.950;4.460;2023-04-03T18:29:28;7.65;;;2.45;;
26337;SDS011;14050;50.950;4.460;2023-04-03T18:34:29;7.70;;;2.40;;
26337;SDS011;14050;50.950;4.460;2023-04-03T18:39:30;8.52;;;2.50;;
26337;SDS011;14050;50.950;4.460;2023-04-03T18:44:31;9.60;;;2.40;;
26337;SDS011;14050;50.950;4.460;2023-04-03T18:49:32;7.85;;;2.40;;
26337;SDS011;14050;50.950;4.460;2023-04-03T18:54:33;7.82;;;2.45;;
26337;SDS011;14050;50.950;4.460;2023-04-03T18:59:33;7.80;;;2.17;;
26337;SDS011;14050;50.950;4.460;2023-04-03T19:04:34;7.50;;;2.70;;
26337;SDS011;14050;50.950;4.460;2023-04-03T19:09:35;5.45;;;2.55;;
26337;SDS011;14050;50.950;4.460;2023-04-03T19:14:38;13.80;;;3.40;;
26337;SDS011;14050;50.950;4.460;2023-04-03T19:19:38;7.68;;;3.05;;
26337;SDS011;14050;50.950;4.460;2023-04-03T19:24:39;8.20;;;3.05;;
26337;SDS011;14050;50.950;4.460;2023-04-03T19:29:40;9.07;;;3.27;;
26337;SDS011;14050;50.950;4.460;2023-04-03T19:34:40;9.32;;;2.95;;
26337;SDS011;14050;50.950;4.460;2023-04-03T19:39:41;5.88;;;2.75;;
26337;SDS011;14050;50.950;4.460;2023-04-03T19:44:42;9.70;;;3.20;;
26337;SDS011;14050;50.950;4.460;2023-04-03T19:49:42;10.52;;;2.78;;
26337;SDS011;14050;50.950;4.460;2023-04-03T19:54:43;6.60;;;2.80;;
26337;SDS011;14050;50.950;4.460;2023-04-03T19:59:43;7.80;;;3.05;;
26337;SDS011;14050;50.950;4.460;2023-04-03T20:04:43;7.13;;;2.70;;
26337;SDS011;14050;50.950;4.460;2023-04-03T20:09:43;7.00;;;2.60;;
26337;SDS011;14050;50.950;4.460;2023-04-03T20:14:44;8.30;;;3.22;;
26337;SDS011;14050;50.950;4.460;2023-04-03T20:19:47;12.48;;;3.00;;
26337;SDS011;14050;50.950;4.460;2023-04-03T20:24:47;9.45;;;3.38;;
26337;SDS011;14050;50.950;4.460;2023-04-03T20:29:48;9.55;;;2.97;;
26337;SDS011;14050;50.950;4.460;2023-04-03T20:34:48;8.25;;;3.45;;
26337;SDS011;14050;50.950;4.460;2023-04-03T20:39:49;7.90;;;3.00;;
26337;SDS011;14050;50.950;4.460;2023-04-03T20:44:49;8.48;;;3.03;;
26337;SDS011;14050;50.950;4.460;2023-04-03T20:49:50;8.43;;;3.03;;
26337;SDS011;14050;50.950;4.460;2023-04-03T20:54:52;10.30;;;2.60;;
26337;SDS011;14050;50.950;4.460;2023-04-03T20:59:53;10.80;;;2.90;;
26337;SDS011;14050;50.950;4.460;2023-04-03T21:04:54;8.15;;;3.00;;
26337;SDS011;14050;50.950;4.460;2023-04-03T21:20:36;11.18;;;3.45;;
26337;SDS011;14050;50.950;4.460;2023-04-03T21:25:37;9.27;;;2.70;;
26337;SDS011;14050;50.950;4.460;2023-04-03T21:30:37;7.93;;;2.70;;
26337;SDS011;14050;50.950;4.460;2023-04-03T21:35:37;5.93;;;2.67;;
26337;SDS011;14050;50.950;4.460;2023-04-03T21:40:37;8.50;;;2.88;;
26337;SDS011;14050;50.950;4.460;2023-04-03T21:45:37;12.82;;;2.72;;
26337;SDS011;14050;50.950;4.460;2023-04-03T21:50:38;11.55;;;2.83;;
26337;SDS011;14050;50.950;4.460;2023-04-03T21:55:38;8.13;;;2.65;;
26337;SDS011;14050;50.950;4.460;2023-04-03T22:00:39;9.63;;;2.80;;
26337;SDS011;14050;50.950;4.460;2023-04-03T22:05:39;7.13;;;2.60;;
26337;SDS011;14050;50.950;4.460;2023-04-03T22:10:40;8.05;;;2.55;;
26337;SDS011;14050;50.950;4.460;2023-04-03T22:15:40;7.27;;;2.30;;
26337;SDS011;14050;50.950;4.460;2023-04-03T22:20:47;6.35;;;2.80;;
26337;SDS011;14050;50.950;4.460;2023-04-03T22:26:03;9.63;;;2.83;;
26337;SDS011;14050;50.950;4.460;2023-04-03T22:31:04;7.13;;;2.50;;
26337;SDS011;14050;50.950;4.460;2023-04-03T22:36:10;6.85;;;2.88;;
26337;SDS011;14050;50.950;4.460;2023-04-03T22:41:10;5.53;;;2.40;;
26337;SDS011;14050;50.950;4.460;2023-04-03T22:46:12;5.72;;;2.55;;
26337;SDS011;14050;50.950;4.460;2023-04-03T22:51:12;5.28;;;2.20;;
26337;SDS011;14050;50.950;4.460;2023-04-03T22:56:13;6.43;;;2.50;;
26337;SDS011;14050;50.950;4.460;2023-04-03T23:01:13;8.02;;;2.90;;
26337;SDS011;14050;50.950;4.460;2023-04-03T23:06:13;9.45;;;2.78;;
26337;SDS011;14050;50.950;4.460;2023-04-03T23:11:14;9.23;;;3.15;;
26337;SDS011;14050;50.950;4.460;2023-04-03T23:16:15;7.13;;;2.85;;
26337;SDS011;14050;50.950;4.460;2023-04-03T23:21:17;5.63;;;2.60;;
26337;SDS011;14050;50.950;4.460;2023-04-03T23:26:17;7.45;;;3.10;;
26337;SDS011;14050;50.950;4.460;2023-04-03T23:31:18;6.18;;;2.78;;
26337;SDS011;14050;50.950;4.460;2023-04-03T23:36:19;9.70;;;2.75;;
26337;SDS011;14050;50.950;4.460;2023-04-03T23:41:20;8.32;;;2.90;;
26337;SDS011;14050;50.950;4.460;2023-04-03T23:46:20;10.02;;;3.05;;
26337;SDS011;14050;50.950;4.460;2023-04-03T23:51:20;7.03;;;2.70;;
26337;SDS011;14050;50.950;4.460;2023-04-03T23:56:20;7.95;;;2.95;;
